Decoded Metar for KSDC ( in ) (IATA:) | Meteo·Mobile Aviation Weather
aviador You're here:

KSDC Decoded Metar

in
Report Time2018-09-24 07:35:00
UTC Time2018-09-24 07:42:57
Flight Rules vfr VFR
WindCalm
Visibility9999 m
Phenomena:N/A
Clouds:N/A
Expected CloudBase > 1,200 ft AGL from Temp-Dew spread
CeilingNone
Temp12°C
Dew Point09°C (82% RH)
AAT11.8°C
QNH1028 hPa
Raw Report
KSDC 240735Z AUTO 00000KT 10SM CLR 12/09 A3037 RMK AO2=

Extra information for KSDC:More info

Social comments